SBEGFMNM

Guest
Details From SBEG - Eduardo Gomes
To FMNM - Philibert Tsiranana
Flight Number -
Tags Generated
Created
Modified
Stats Distance 6,301 nm / 11,669 km
Max Altitude 0 ft / 0 m
Waypoints 3
Social Downloads 0
Likes 0
Share VATSIM

Download

Looking for another format? Having issues loading an existing format? Contact us
Advertisement - Login to hide

Notes

Generated

Route

SBEG MG FMNM

ID Type Via Altitude Latitude Longitude Leg Dist Tot Dist Heading (true) Name
O SBEG APT - 0 ft / 0 m -3.03858˚ -60.06189˚ - 0 nm - -
MG VOR - 0 ft / 0 m -15.65750˚ 46.34067˚ 6300 nm 6300 nm 107° / 82° PHILIBERT TSIRANANA VOR-DME
O FMNM APT - 0 ft / 0 m -15.66046˚ 46.34422˚ 0 nm 6300 nm 131° / 131° -

Altitude Profile

Advertisement - Login to hide

Weather


0- 5 10 15 20 25 30 35+ Temperature / ° C

Clouds and Precipitation
Forecast for 2018-05-27 18:00 UTC. Updated 5 hours ago

Ground ~20,000 ft ~40,000 ft Winds

SBEG

Details ICAO SBEG (MAO)
Name Eduardo Gomes
Region Brazil
Timezone America/Manaus (UTC-4.0)
Stats Elevation 264 ft / 80 m (AMSL)
Location -3.038611° -60.049723°
Runways 1
Magnetic Variation 15.815° W

METAR

SBEG 272200Z 08007KT 9999 FEW020 FEW025TCU SCT100 25/23 Q1011

Decode

TAF

TAF SBEG 271600Z 2718/2818 10008KT 9999 SCT020 FEW025TCU TX31/2718Z TN24/2808Z PROB40 2718/2720 06015KT 4000 TSRA BKN010 FEW025CB BECMG 2719/2721 09005KT FEW020 BECMG 2723/2801 00000KT FEW010 BECMG 2803/2805 03002KT BECMG 2807/2809 36002KT BECMG 2811/2813 07005KT SCT015 BECMG 2815/2817 09010KT SCT020 FEW025TCU RMK PDY

Decode

Departure Runways

ID Width Length Bearing (true) Bearing (mag) Surface Threshold Offset Overrun Length
10 148 ft / 45 m 8,867 ft / 2,703 m 90.13° 105.94° Asphalt 0 ft / 0 m 215 ft / 66 m
28 148 ft / 45 m 8,867 ft / 2,703 m 270.13° 285.94° Asphalt 0 ft / 0 m 250 ft / 76 m

FMNM

Details ICAO FMNM (MJN)
Name PHILIBERT TSIRANANA
Region Comoros, Mayotte, Réunion and Madagascar
Timezone Indian/Antananarivo (UTC+3.0)
Stats Elevation 87 ft / 27 m (AMSL)
Location -15.667144° 46.351829°
Runways 1
Magnetic Variation 11.247° W

METAR

FMNM 272200Z 12004KT 9999 FEW040 24/21 Q1015

Decode

TAF

TAF FMNM 271700Z 2718/2818 30005KT 9999 FEW020 SCT040 BECMG 2805/2808 14010KT

Decode

Destination Runways

ID Width Length Bearing (true) Bearing (mag) Surface Threshold Offset Overrun Length
14 148 ft / 45 m 7,235 ft / 2,205 m 132.37° 143.62° Asphalt 0 ft / 0 m 98 ft / 30 m
32 148 ft / 45 m 7,235 ft / 2,205 m 312.37° 323.62° Asphalt 0 ft / 0 m 98 ft / 30 m